createdAt,value
2022-07-27T00:01:01.578Z,20.68
2022-07-27T00:02:07.041Z,20.68
2022-07-27T00:03:12.721Z,20.74
2022-07-27T00:04:15.671Z,20.79
2022-07-27T00:05:21.090Z,20.92
2022-07-27T00:06:27.138Z,20.95
2022-07-27T00:07:30.642Z,20.89
2022-07-27T00:08:35.021Z,20.92
2022-07-27T00:09:39.924Z,21.04
2022-07-27T00:10:44.849Z,21.11
2022-07-27T00:11:48.616Z,21.12
2022-07-27T00:12:53.628Z,20.92
2022-07-27T00:13:59.882Z,20.90
2022-07-27T00:15:06.460Z,20.76
2022-07-27T00:16:11.740Z,20.61
2022-07-27T00:17:15.754Z,20.57
2022-07-27T00:18:19.316Z,20.48
2022-07-27T00:19:25.548Z,20.51
2022-07-27T00:20:32.747Z,20.52
2022-07-27T00:21:44.590Z,20.47
2022-07-27T00:22:46.522Z,20.47
2022-07-27T00:23:50.169Z,20.48
2022-07-27T00:24:53.952Z,20.47
2022-07-27T00:25:57.506Z,20.46
2022-07-27T00:27:02.404Z,20.50
2022-07-27T00:28:06.397Z,20.49
2022-07-27T00:29:11.227Z,20.49
2022-07-27T00:30:25.381Z,20.57
2022-07-27T00:31:29.141Z,20.58
2022-07-27T00:32:32.559Z,20.58
2022-07-27T00:33:38.161Z,20.58
2022-07-27T00:34:41.735Z,20.65
2022-07-27T00:35:44.941Z,20.64
2022-07-27T00:36:48.112Z,20.69
2022-07-27T00:37:51.855Z,20.69
2022-07-27T00:38:54.592Z,20.68
2022-07-27T00:40:03.325Z,20.70
2022-07-27T00:41:12.256Z,20.71
2022-07-27T00:42:15.872Z,20.71
2022-07-27T00:43:18.803Z,20.64
2022-07-27T00:44:29.216Z,20.65
2022-07-27T00:45:37.097Z,20.69
2022-07-27T00:46:40.814Z,20.71
2022-07-27T00:47:49.596Z,20.71
2022-07-27T00:48:53.253Z,20.71
2022-07-27T00:49:58.612Z,20.74
2022-07-27T00:51:01.800Z,20.79
2022-07-27T00:52:08.000Z,20.76
2022-07-27T00:53:12.066Z,20.81
2022-07-27T00:54:17.038Z,20.86
2022-07-27T00:55:21.159Z,20.90
2022-07-27T00:56:27.285Z,20.90
2022-07-27T00:57:31.973Z,20.93
2022-07-27T00:58:38.029Z,20.91
2022-07-27T00:59:47.918Z,20.93
2022-07-27T01:00:54.419Z,20.93
2022-07-27T01:01:58.527Z,20.96
2022-07-27T01:03:08.791Z,20.97
2022-07-27T01:04:11.259Z,20.95
2022-07-27T01:05:14.879Z,20.99
2022-07-27T01:06:26.761Z,21.02
2022-07-27T01:07:27.139Z,21.01
2022-07-27T01:08:30.942Z,20.97
2022-07-27T01:09:55.390Z,21.01
2022-07-27T01:10:59.576Z,21.01
2022-07-27T01:12:07.294Z,20.96
2022-07-27T01:13:12.660Z,20.91
2022-07-27T01:14:20.485Z,20.97
2022-07-27T01:15:27.121Z,21.00
2022-07-27T01:16:30.994Z,20.99
2022-07-27T01:17:36.282Z,21.00
2022-07-27T01:18:40.653Z,21.08
2022-07-27T01:19:48.425Z,20.99
2022-07-27T01:20:52.087Z,21.01
2022-07-27T01:21:55.007Z,21.01
2022-07-27T01:22:58.427Z,21.04
2022-07-27T01:24:02.359Z,21.00
2022-07-27T01:25:05.867Z,20.97
2022-07-27T01:26:10.263Z,21.01
2022-07-27T01:27:15.022Z,21.04
2022-07-27T01:28:20.416Z,21.04
2022-07-27T01:29:23.908Z,21.08
2022-07-27T01:30:30.757Z,21.12
2022-07-27T01:31:34.879Z,21.09
2022-07-27T01:32:38.435Z,21.10
2022-07-27T01:33:42.280Z,21.13
2022-07-27T01:34:47.725Z,21.12
2022-07-27T01:35:56.517Z,21.04
2022-07-27T01:37:03.171Z,21.08
2022-07-27T01:38:10.669Z,21.08
2022-07-27T01:39:15.690Z,21.13
2022-07-27T01:40:20.997Z,21.12
2022-07-27T01:41:25.951Z,21.20
2022-07-27T01:42:31.358Z,21.08
2022-07-27T01:43:36.328Z,21.04
2022-07-27T01:44:41.418Z,21.04
2022-07-27T01:45:46.756Z,21.06
2022-07-27T01:46:55.183Z,20.96
2022-07-27T01:47:57.975Z,20.86
2022-07-27T01:49:01.734Z,20.80
2022-07-27T01:50:08.695Z,20.79
2022-07-27T01:51:15.550Z,20.68
2022-07-27T01:52:19.334Z,20.74
2022-07-27T01:53:23.831Z,20.75
2022-07-27T01:54:27.373Z,20.73
2022-07-27T01:55:41.026Z,20.69
2022-07-27T01:56:44.849Z,20.63
2022-07-27T01:57:48.436Z,20.64
2022-07-27T01:58:53.084Z,20.65
2022-07-27T01:59:56.769Z,20.65
2022-07-27T02:01:01.010Z,20.56
2022-07-27T02:02:06.417Z,20.57
2022-07-27T02:03:15.948Z,20.54
2022-07-27T02:04:20.733Z,20.62
2022-07-27T02:05:23.695Z,20.62
2022-07-27T02:06:30.301Z,20.68
2022-07-27T02:07:35.206Z,20.63
2022-07-27T02:08:38.932Z,20.68
2022-07-27T02:09:42.094Z,20.69
2022-07-27T02:11:05.202Z,20.70
2022-07-27T02:12:29.152Z,20.73
2022-07-27T02:13:33.042Z,20.82
2022-07-27T02:14:39.905Z,20.79
2022-07-27T02:17:01.643Z,20.93
2022-07-27T02:18:33.318Z,20.88
2022-07-27T02:19:15.368Z,20.98
2022-07-27T02:20:23.275Z,21.02
2022-07-27T02:21:26.613Z,21.08
2022-07-27T02:22:32.184Z,21.06
2022-07-27T02:23:36.803Z,21.04
2022-07-27T02:24:40.574Z,20.95
2022-07-27T02:25:51.493Z,20.93
2022-07-27T02:26:58.255Z,20.93
2022-07-27T02:28:05.028Z,20.90
2022-07-27T02:29:09.089Z,20.96
2022-07-27T02:30:13.190Z,20.99
2022-07-27T02:31:17.477Z,20.96
2022-07-27T02:32:25.357Z,20.99
2022-07-27T02:33:29.460Z,21.04
2022-07-27T02:34:32.253Z,21.11
2022-07-27T02:35:35.674Z,21.18
2022-07-27T02:36:41.354Z,21.18
2022-07-27T02:37:46.188Z,21.18
2022-07-27T02:38:49.683Z,21.20
2022-07-27T02:39:55.003Z,21.29
2022-07-27T02:40:59.071Z,21.38
2022-07-27T02:42:03.576Z,21.36
2022-07-27T02:43:10.374Z,21.32
2022-07-27T02:44:14.978Z,21.25
2022-07-27T02:45:18.754Z,21.36
2022-07-27T02:46:22.965Z,21.43
2022-07-27T02:47:26.465Z,21.41
2022-07-27T02:48:30.657Z,21.42
2022-07-27T02:49:33.192Z,21.47
2022-07-27T02:50:37.604Z,21.46
2022-07-27T02:51:41.494Z,21.42
2022-07-27T02:52:48.408Z,21.42
2022-07-27T02:53:51.421Z,21.47
2022-07-27T02:54:55.205Z,21.46
2022-07-27T02:56:02.284Z,21.42
2022-07-27T02:57:07.317Z,21.49
2022-07-27T02:58:12.177Z,21.55
2022-07-27T02:59:19.048Z,21.61
2022-07-27T03:00:23.725Z,21.66
2022-07-27T03:01:27.588Z,21.70
2022-07-27T03:02:30.238Z,21.71
2022-07-27T03:03:37.453Z,21.75
2022-07-27T03:04:45.162Z,21.93
2022-07-27T03:05:50.246Z,22.20
2022-07-27T03:06:55.636Z,22.42
2022-07-27T03:08:00.306Z,22.56
2022-07-27T03:09:04.771Z,22.70
2022-07-27T03:10:12.969Z,22.70
2022-07-27T03:12:30.741Z,22.91
2022-07-27T03:13:34.442Z,22.83
2022-07-27T03:14:37.982Z,22.84
2022-07-27T03:15:45.907Z,22.84
2022-07-27T03:16:50.232Z,22.90
2022-07-27T03:17:53.832Z,23.07
2022-07-27T03:19:01.500Z,23.15
2022-07-27T03:20:05.340Z,23.13
2022-07-27T03:21:10.272Z,23.07
2022-07-27T03:22:15.606Z,22.99
2022-07-27T03:23:23.319Z,22.95
2022-07-27T03:24:30.479Z,22.92
2022-07-27T03:25:35.393Z,22.92
2022-07-27T03:26:38.516Z,23.02
2022-07-27T03:27:43.967Z,23.05
2022-07-27T03:28:50.582Z,22.95
2022-07-27T03:29:54.024Z,22.88
2022-07-27T03:30:57.971Z,22.91
2022-07-27T03:32:03.200Z,22.90
2022-07-27T03:33:07.212Z,22.88
2022-07-27T03:34:11.029Z,22.89
2022-07-27T03:35:19.853Z,22.92
2022-07-27T03:36:25.060Z,22.92
2022-07-27T03:37:29.446Z,22.90
2022-07-27T03:38:36.739Z,22.85
2022-07-27T03:39:40.207Z,22.85
2022-07-27T03:40:47.097Z,22.91
2022-07-27T03:41:53.027Z,22.83
2022-07-27T03:42:57.897Z,22.76
2022-07-27T03:44:00.457Z,22.70
2022-07-27T03:45:04.910Z,22.55
2022-07-27T03:46:12.700Z,22.55
2022-07-27T03:47:17.791Z,22.57
2022-07-27T03:48:21.519Z,22.61
2022-07-27T03:49:28.170Z,22.63
2022-07-27T03:50:33.553Z,22.70
2022-07-27T03:51:39.820Z,22.78
2022-07-27T03:52:45.614Z,22.71
2022-07-27T03:53:48.668Z,22.72
2022-07-27T03:54:52.214Z,22.63
2022-07-27T03:55:56.894Z,22.57
2022-07-27T03:57:00.581Z,22.57
2022-07-27T03:58:06.023Z,22.55
2022-07-27T03:59:13.810Z,22.66
2022-07-27T04:00:19.247Z,22.66
2022-07-27T04:01:23.099Z,22.72
2022-07-27T04:02:26.105Z,22.75
2022-07-27T04:03:28.614Z,22.80
2022-07-27T04:04:35.911Z,22.75
2022-07-27T04:05:39.233Z,22.82
2022-07-27T04:06:43.143Z,22.92
2022-07-27T04:07:47.227Z,22.95
2022-07-27T04:08:54.981Z,23.00
2022-07-27T04:09:57.183Z,22.99
2022-07-27T04:11:02.059Z,22.90
2022-07-27T04:12:05.347Z,23.02
2022-07-27T04:13:10.494Z,23.05
2022-07-27T04:14:14.940Z,23.10
2022-07-27T04:16:26.347Z,23.16
2022-07-27T04:17:55.448Z,23.16
2022-07-27T04:18:38.717Z,23.27
2022-07-27T04:19:41.966Z,23.27
2022-07-27T04:20:46.798Z,23.37
2022-07-27T04:21:59.794Z,23.41
2022-07-27T04:23:05.438Z,23.33
2022-07-27T04:24:08.978Z,23.26
2022-07-27T04:25:13.597Z,23.38
2022-07-27T04:26:17.760Z,23.48
2022-07-27T04:27:22.538Z,23.60
2022-07-27T04:28:26.065Z,24.01
2022-07-27T04:29:29.702Z,25.00
2022-07-27T04:30:34.918Z,26.00
2022-07-27T04:31:39.172Z,26.60
2022-07-27T04:32:45.581Z,26.99
2022-07-27T04:33:50.673Z,27.27
2022-07-27T04:34:56.096Z,28.26
2022-07-27T04:35:59.753Z,29.44
2022-07-27T04:37:03.383Z,30.85
2022-07-27T04:38:07.350Z,32.43
2022-07-27T04:39:11.547Z,33.92
2022-07-27T04:40:20.181Z,34.93
2022-07-27T04:41:30.291Z,35.74
2022-07-27T04:42:29.618Z,36.18
2022-07-27T04:43:34.622Z,36.49
2022-07-27T04:44:39.071Z,36.58
2022-07-27T04:45:43.247Z,37.09
2022-07-27T04:46:48.113Z,37.42
2022-07-27T04:47:51.780Z,37.77
2022-07-27T04:48:54.957Z,38.11
2022-07-27T04:50:00.338Z,38.51
2022-07-27T04:51:03.813Z,38.87
2022-07-27T04:52:07.360Z,38.87
2022-07-27T04:53:10.578Z,39.02
2022-07-27T04:54:14.516Z,39.19
2022-07-27T04:55:19.180Z,39.21
2022-07-27T04:56:22.658Z,39.20
2022-07-27T04:57:31.330Z,39.61
2022-07-27T04:58:36.501Z,39.92
2022-07-27T04:59:40.050Z,39.99
2022-07-27T05:00:43.764Z,40.20
2022-07-27T05:01:47.682Z,40.46
2022-07-27T05:02:51.314Z,40.64
2022-07-27T05:03:55.388Z,40.91
2022-07-27T05:05:03.985Z,41.20
2022-07-27T05:06:08.381Z,41.10
2022-07-27T05:07:11.836Z,41.17
2022-07-27T05:08:18.219Z,41.22
2022-07-27T05:09:22.596Z,41.35
2022-07-27T05:10:30.132Z,41.37
2022-07-27T05:11:33.709Z,41.07
2022-07-27T05:12:38.000Z,41.54
2022-07-27T05:13:41.837Z,41.70
2022-07-27T05:14:46.998Z,42.05
2022-07-27T05:15:56.019Z,42.26
2022-07-27T05:16:58.787Z,42.25
2022-07-27T05:18:08.978Z,42.64
2022-07-27T05:19:12.568Z,42.62
2022-07-27T05:20:18.459Z,42.86
2022-07-27T05:21:22.277Z,42.62
2022-07-27T05:22:29.057Z,42.49
2022-07-27T05:23:32.985Z,42.44
2022-07-27T05:24:40.066Z,42.28
2022-07-27T05:25:43.475Z,42.37
2022-07-27T05:26:48.576Z,42.56
2022-07-27T05:29:05.344Z,42.54
2022-07-27T05:30:13.213Z,42.27
2022-07-27T05:31:19.256Z,42.57
2022-07-27T05:32:23.437Z,42.68
2022-07-27T05:33:27.151Z,42.71
2022-07-27T05:34:29.892Z,42.89
2022-07-27T05:35:36.725Z,43.25
2022-07-27T05:36:40.405Z,42.90
2022-07-27T05:37:45.103Z,42.56
2022-07-27T05:38:48.681Z,42.86
2022-07-27T05:39:51.732Z,43.45
2022-07-27T05:40:54.714Z,43.04
2022-07-27T05:42:03.082Z,43.11
2022-07-27T05:43:06.875Z,43.78
2022-07-27T05:44:09.784Z,44.44
2022-07-27T05:45:14.306Z,44.06
2022-07-27T05:46:29.643Z,43.80
2022-07-27T05:47:31.410Z,43.76
2022-07-27T05:48:37.042Z,44.37
2022-07-27T05:49:40.536Z,44.88
2022-07-27T05:50:45.164Z,44.00
2022-07-27T05:51:49.817Z,42.71
2022-07-27T05:52:53.215Z,42.17
2022-07-27T05:53:55.628Z,42.89
2022-07-27T05:55:02.584Z,43.77
2022-07-27T05:56:09.234Z,44.21
2022-07-27T05:57:12.935Z,44.29
2022-07-27T05:58:16.428Z,43.41
2022-07-27T05:59:23.662Z,43.55
2022-07-27T06:00:26.837Z,44.04
2022-07-27T06:01:31.262Z,43.68
2022-07-27T06:02:37.297Z,43.07
2022-07-27T06:03:47.147Z,43.92
2022-07-27T06:04:46.265Z,43.92
2022-07-27T06:05:53.824Z,44.16
2022-07-27T06:07:17.478Z,44.04
2022-07-27T06:08:21.978Z,43.92
2022-07-27T06:09:25.124Z,44.08
2022-07-27T06:10:32.136Z,44.35
2022-07-27T06:11:35.937Z,43.68
2022-07-27T06:12:41.637Z,43.65
2022-07-27T06:13:45.345Z,42.82
2022-07-27T06:14:50.961Z,42.85
2022-07-27T06:15:54.342Z,43.29
2022-07-27T06:16:56.915Z,43.52
2022-07-27T06:18:02.024Z,43.78
2022-07-27T06:19:05.576Z,42.38
2022-07-27T06:20:09.800Z,39.85
2022-07-27T06:21:14.830Z,39.66
2022-07-27T06:22:19.134Z,41.25
2022-07-27T06:23:22.018Z,41.80
2022-07-27T06:24:25.729Z,41.17
2022-07-27T06:25:35.509Z,41.93
2022-07-27T06:26:43.221Z,41.92
2022-07-27T06:27:49.037Z,42.92
2022-07-27T06:28:54.642Z,43.56
2022-07-27T06:30:00.805Z,43.89
2022-07-27T06:31:04.765Z,43.74
2022-07-27T06:32:10.605Z,43.50
2022-07-27T06:33:15.406Z,43.33
2022-07-27T06:34:19.623Z,44.14
2022-07-27T06:35:23.860Z,43.99
2022-07-27T06:36:30.745Z,43.41
2022-07-27T06:37:44.149Z,43.69
2022-07-27T06:38:48.898Z,43.17
2022-07-27T06:39:52.711Z,43.16
2022-07-27T06:40:56.013Z,41.78
2022-07-27T06:41:58.743Z,41.61
2022-07-27T06:43:05.578Z,41.69
2022-07-27T06:44:10.487Z,41.57
2022-07-27T06:45:14.261Z,41.32
2022-07-27T06:46:19.331Z,40.21
2022-07-27T06:47:28.504Z,41.20
2022-07-27T06:48:30.498Z,41.19
2022-07-27T06:49:35.573Z,41.54
2022-07-27T06:50:42.626Z,42.02
2022-07-27T06:51:47.625Z,42.40
2022-07-27T06:52:51.277Z,41.74
2022-07-27T06:55:07.215Z,42.84
2022-07-27T06:56:11.355Z,42.66
2022-07-27T06:57:17.544Z,42.02
2022-07-27T06:58:25.306Z,42.24
2022-07-27T06:59:43.374Z,41.96
2022-07-27T07:00:36.042Z,41.00
2022-07-27T07:01:39.898Z,41.19
2022-07-27T07:03:00.062Z,41.23
2022-07-27T07:04:05.059Z,42.12
2022-07-27T07:05:10.521Z,41.97
2022-07-27T07:06:16.365Z,42.93
2022-07-27T07:07:25.090Z,43.01
2022-07-27T07:08:29.012Z,42.88
2022-07-27T07:09:33.094Z,42.81
2022-07-27T07:10:37.016Z,43.52
2022-07-27T07:11:40.541Z,43.90
2022-07-27T07:12:48.539Z,44.52
2022-07-27T07:13:55.279Z,44.57
2022-07-27T07:15:02.257Z,44.63
2022-07-27T07:16:06.185Z,44.79
2022-07-27T07:17:09.686Z,45.16
2022-07-27T07:18:17.574Z,45.83
2022-07-27T07:19:22.234Z,45.55
2022-07-27T07:20:30.161Z,45.18
2022-07-27T07:21:35.374Z,44.33
2022-07-27T07:22:41.118Z,43.84
2022-07-27T07:23:44.819Z,44.57
2022-07-27T07:24:48.531Z,45.16
2022-07-27T07:25:52.283Z,45.41
2022-07-27T07:26:58.071Z,44.66
2022-07-27T07:28:02.013Z,44.14
2022-07-27T07:29:06.264Z,44.97
2022-07-27T07:30:15.724Z,45.00
2022-07-27T07:31:20.882Z,44.72
2022-07-27T07:32:25.518Z,45.39
2022-07-27T07:33:30.355Z,45.63
2022-07-27T07:34:35.153Z,45.19
2022-07-27T07:36:12.101Z,44.81
2022-07-27T07:38:01.400Z,43.12
2022-07-27T07:39:06.061Z,43.51
2022-07-27T07:41:17.017Z,44.93
2022-07-27T07:42:21.154Z,44.61
2022-07-27T07:43:27.636Z,44.41
2022-07-27T07:44:30.951Z,42.72
2022-07-27T07:45:50.433Z,42.42
2022-07-27T07:46:47.453Z,42.25
2022-07-27T07:47:53.525Z,42.25
2022-07-27T07:48:57.479Z,41.66
2022-07-27T07:50:01.682Z,41.98
2022-07-27T07:51:05.496Z,40.15
2022-07-27T07:52:10.262Z,39.73
2022-07-27T07:53:15.410Z,38.54
2022-07-27T07:54:18.906Z,38.10
2022-07-27T07:55:25.522Z,37.77
2022-07-27T07:56:29.352Z,37.44
2022-07-27T07:57:33.113Z,36.94
2022-07-27T07:58:36.660Z,37.33
2022-07-27T07:59:43.830Z,38.12
2022-07-27T08:00:47.674Z,38.42
2022-07-27T08:01:51.488Z,38.88
2022-07-27T08:02:58.238Z,39.82
2022-07-27T08:04:03.813Z,39.28
2022-07-27T08:05:10.771Z,38.71
2022-07-27T08:06:16.256Z,38.80
2022-07-27T08:07:20.105Z,39.00
2022-07-27T08:08:24.835Z,39.36
2022-07-27T08:09:29.315Z,39.03
2022-07-27T08:10:32.544Z,38.69
2022-07-27T08:11:38.404Z,38.50
2022-07-27T08:12:45.783Z,38.60
2022-07-27T08:13:49.221Z,38.51
2022-07-27T08:14:53.107Z,38.52
2022-07-27T08:15:56.234Z,38.68
2022-07-27T08:17:09.447Z,38.43
2022-07-27T08:18:13.129Z,38.50
2022-07-27T08:19:16.582Z,37.91
2022-07-27T08:20:22.222Z,37.57
2022-07-27T08:21:26.366Z,37.30
2022-07-27T08:22:32.162Z,36.92
2022-07-27T08:23:35.709Z,36.97
2022-07-27T08:24:41.404Z,36.65
2022-07-27T08:25:47.083Z,36.23
2022-07-27T08:26:52.069Z,36.03
2022-07-27T08:27:59.163Z,36.20
2022-07-27T08:29:11.310Z,36.50
2022-07-27T08:30:11.717Z,36.54
2022-07-27T08:31:18.891Z,36.06
2022-07-27T08:32:28.705Z,35.30
2022-07-27T08:33:32.638Z,35.60
2022-07-27T08:34:39.091Z,35.17
2022-07-27T08:35:43.048Z,35.25
2022-07-27T08:36:46.616Z,35.19
2022-07-27T08:37:50.720Z,35.54
2022-07-27T08:38:55.648Z,35.82
2022-07-27T08:41:10.557Z,35.97
2022-07-27T08:42:15.151Z,36.12
2022-07-27T08:43:25.867Z,35.73
2022-07-27T08:44:29.368Z,36.11
2022-07-27T08:45:34.622Z,36.17
2022-07-27T08:46:41.303Z,35.74
2022-07-27T08:47:47.998Z,36.21
2022-07-27T08:48:52.617Z,36.44
2022-07-27T08:49:56.995Z,35.96
2022-07-27T08:51:01.115Z,35.59
2022-07-27T08:52:06.028Z,35.67
2022-07-27T08:53:11.356Z,35.59
2022-07-27T08:54:16.157Z,35.98
2022-07-27T08:55:20.602Z,36.23
2022-07-27T08:56:24.999Z,36.84
2022-07-27T08:57:31.428Z,37.40
2022-07-27T08:58:33.767Z,37.73
2022-07-27T08:59:37.692Z,37.31
2022-07-27T09:00:48.927Z,37.48
2022-07-27T09:01:51.630Z,37.58
2022-07-27T09:02:57.251Z,37.77
2022-07-27T09:04:00.899Z,37.88
2022-07-27T09:05:06.041Z,37.48
2022-07-27T09:06:11.165Z,37.18
2022-07-27T09:07:36.304Z,37.73
2022-07-27T09:08:41.101Z,37.34
2022-07-27T09:09:48.284Z,37.26
2022-07-27T09:10:56.887Z,37.78
2022-07-27T09:12:11.373Z,37.63
2022-07-27T09:13:26.970Z,37.33
2022-07-27T09:14:37.097Z,37.25
2022-07-27T09:16:15.771Z,37.19
2022-07-27T09:17:45.935Z,37.52
2022-07-27T09:18:00.253Z,37.25
2022-07-27T09:19:08.786Z,37.54
2022-07-27T09:20:19.319Z,37.89
2022-07-27T09:21:25.053Z,37.03
2022-07-27T09:22:44.997Z,36.22
2022-07-27T09:23:53.757Z,36.17
2022-07-27T09:25:04.583Z,36.06
2022-07-27T09:26:31.264Z,35.74
2022-07-27T09:27:27.636Z,35.76
2022-07-27T09:28:34.774Z,35.81
2022-07-27T09:29:38.238Z,35.51
2022-07-27T09:30:43.176Z,35.79
2022-07-27T09:31:50.108Z,35.72
2022-07-27T09:33:06.981Z,35.82
2022-07-27T09:34:11.727Z,36.23
2022-07-27T09:35:17.864Z,36.53
2022-07-27T09:36:24.892Z,36.90
2022-07-27T09:37:29.410Z,36.07
2022-07-27T09:38:33.446Z,35.56
2022-07-27T09:39:39.970Z,35.47
2022-07-27T09:40:44.312Z,35.82
2022-07-27T09:42:00.387Z,35.57
2022-07-27T09:44:12.527Z,35.93
2022-07-27T09:44:32.540Z,36.26
2022-07-27T09:45:35.834Z,35.62
2022-07-27T09:46:48.533Z,35.16
2022-07-27T09:47:53.488Z,34.78
2022-07-27T09:48:57.325Z,35.03
2022-07-27T09:50:20.543Z,35.33
2022-07-27T09:52:34.624Z,34.93
2022-07-27T09:53:43.659Z,34.96
2022-07-27T09:54:47.703Z,35.24
2022-07-27T09:56:04.120Z,35.27
2022-07-27T09:57:08.101Z,35.10
2022-07-27T09:58:15.897Z,35.38
2022-07-27T09:59:20.252Z,35.41
2022-07-27T10:00:27.948Z,36.26
2022-07-27T10:01:43.921Z,36.56
2022-07-27T10:02:48.606Z,36.60
2022-07-27T10:03:58.572Z,36.58
2022-07-27T10:05:03.877Z,36.82
2022-07-27T10:06:10.015Z,36.64
2022-07-27T10:07:15.167Z,36.55
2022-07-27T10:08:19.441Z,37.04
2022-07-27T10:09:22.882Z,37.11
2022-07-27T10:10:27.464Z,37.20
2022-07-27T10:11:32.223Z,37.61
2022-07-27T10:12:34.916Z,37.92
2022-07-27T10:13:43.914Z,38.21
2022-07-27T10:14:45.356Z,37.98
2022-07-27T10:15:49.079Z,38.64
2022-07-27T10:16:55.291Z,38.10
2022-07-27T10:18:07.171Z,38.20
2022-07-27T10:19:23.140Z,37.69
2022-07-27T10:20:28.095Z,37.51
2022-07-27T10:21:34.468Z,36.82
2022-07-27T10:22:59.388Z,36.93
2022-07-27T10:24:09.950Z,37.04
2022-07-27T10:25:14.270Z,37.54
2022-07-27T10:26:24.313Z,37.25
2022-07-27T10:27:32.914Z,37.25
2022-07-27T10:29:52.135Z,36.59
2022-07-27T10:31:01.612Z,35.97
2022-07-27T10:32:08.568Z,35.48
2022-07-27T10:33:17.202Z,35.05
2022-07-27T10:34:41.496Z,34.80
2022-07-27T10:35:45.716Z,34.62
2022-07-27T10:36:56.314Z,34.47
2022-07-27T10:38:12.377Z,34.67
2022-07-27T10:39:34.268Z,34.95
2022-07-27T10:40:47.728Z,35.35
2022-07-27T10:41:51.534Z,35.47
2022-07-27T10:44:29.174Z,35.93
2022-07-27T10:47:04.794Z,36.73
2022-07-27T10:48:08.359Z,36.47
2022-07-27T10:49:20.952Z,36.49
2022-07-27T10:50:29.189Z,36.57
2022-07-27T10:51:36.319Z,36.59
2022-07-27T10:52:51.468Z,36.42
2022-07-27T10:54:11.860Z,36.13
2022-07-27T10:55:07.726Z,36.06
2022-07-27T10:56:12.483Z,35.77
2022-07-27T10:57:19.991Z,35.04
2022-07-27T10:58:30.467Z,35.40
2022-07-27T11:00:08.010Z,34.84
2022-07-27T11:00:57.676Z,34.76
2022-07-27T11:03:29.831Z,35.18
2022-07-27T11:04:35.460Z,35.54
2022-07-27T11:05:59.685Z,35.49
2022-07-27T11:07:23.003Z,35.18
2022-07-27T11:10:17.943Z,34.67
2022-07-27T11:11:25.156Z,34.49
2022-07-27T11:12:29.621Z,34.89
2022-07-27T11:13:38.928Z,35.78
2022-07-27T11:14:50.214Z,35.72
2022-07-27T11:16:15.760Z,35.78
2022-07-27T11:18:15.869Z,34.74
2022-07-27T11:19:19.753Z,34.81
2022-07-27T11:20:28.729Z,34.82
2022-07-27T11:21:38.274Z,35.40
2022-07-27T11:25:05.989Z,36.41
2022-07-27T11:26:11.130Z,35.55
2022-07-27T11:27:20.001Z,35.85
2022-07-27T11:28:31.375Z,36.34
2022-07-27T11:29:43.532Z,36.06
2022-07-27T11:30:45.524Z,35.43
2022-07-27T11:31:58.957Z,35.24
2022-07-27T11:33:03.806Z,34.82
2022-07-27T11:34:10.378Z,34.80
2022-07-27T11:35:19.536Z,34.70
2022-07-27T11:36:22.502Z,34.44
2022-07-27T11:37:26.249Z,34.44
2022-07-27T11:38:30.691Z,34.38
2022-07-27T11:39:59.938Z,34.41
2022-07-27T11:40:57.313Z,34.44
2022-07-27T11:43:08.747Z,34.66
2022-07-27T11:44:17.047Z,34.23
2022-07-27T11:45:31.016Z,34.19
2022-07-27T11:46:38.925Z,34.06
2022-07-27T11:47:44.331Z,34.35
2022-07-27T11:49:07.261Z,34.33
2022-07-27T11:50:09.181Z,34.35
2022-07-27T11:51:14.980Z,34.44
2022-07-27T11:52:19.199Z,34.32
2022-07-27T11:53:21.946Z,34.35
2022-07-27T11:54:28.025Z,34.10
2022-07-27T11:55:31.886Z,34.38
2022-07-27T11:56:38.518Z,33.98
2022-07-27T11:57:41.862Z,33.99
2022-07-27T12:00:24.761Z,34.16
2022-07-27T12:01:40.109Z,34.05
2022-07-27T12:04:22.021Z,34.30
2022-07-27T12:05:25.938Z,34.19
2022-07-27T12:06:35.857Z,34.24
2022-07-27T12:07:43.585Z,34.17
2022-07-27T12:08:48.636Z,34.10
2022-07-27T12:09:56.687Z,34.18
2022-07-27T12:11:01.285Z,34.19
2022-07-27T12:12:14.941Z,34.39
2022-07-27T12:13:21.796Z,34.37
2022-07-27T12:15:46.761Z,34.03
2022-07-27T12:16:55.343Z,34.17
2022-07-27T12:17:58.336Z,33.93
2022-07-27T12:19:01.049Z,33.92
2022-07-27T12:20:15.406Z,33.92
2022-07-27T12:21:21.528Z,34.09
2022-07-27T12:22:31.993Z,34.04
2022-07-27T12:23:35.378Z,33.97
2022-07-27T12:24:41.097Z,34.15
2022-07-27T12:25:46.459Z,34.27
2022-07-27T12:27:07.986Z,34.51
2022-07-27T12:28:16.831Z,34.59
2022-07-27T12:29:20.914Z,34.69
2022-07-27T12:30:51.878Z,34.47
2022-07-27T12:32:01.586Z,34.35
2022-07-27T12:33:10.287Z,34.38
2022-07-27T12:34:18.671Z,34.31
2022-07-27T12:35:36.220Z,34.34
2022-07-27T12:36:46.828Z,34.51
2022-07-27T12:38:03.340Z,34.39
2022-07-27T12:39:06.985Z,34.48
2022-07-27T12:40:15.349Z,34.48
2022-07-27T12:41:40.991Z,34.54
2022-07-27T12:42:50.739Z,34.44
2022-07-27T12:44:13.113Z,34.31
2022-07-27T12:45:19.494Z,34.24
2022-07-27T12:46:23.772Z,34.04
2022-07-27T12:47:46.145Z,33.92
2022-07-27T12:48:50.908Z,33.94
2022-07-27T12:50:05.896Z,33.86
2022-07-27T12:51:12.579Z,33.86
2022-07-27T12:52:15.668Z,34.03
2022-07-27T12:53:20.569Z,34.21
2022-07-27T12:54:23.792Z,34.06
2022-07-27T12:55:31.074Z,34.13
2022-07-27T12:56:36.739Z,34.41
2022-07-27T12:57:55.165Z,34.43
2022-07-27T12:59:04.472Z,34.50
2022-07-27T13:01:24.166Z,34.17
2022-07-27T13:02:27.968Z,34.22
2022-07-27T13:03:31.928Z,34.09
2022-07-27T13:04:35.618Z,34.03
2022-07-27T13:05:40.104Z,34.09
2022-07-27T13:07:00.187Z,34.26
2022-07-27T13:08:06.099Z,33.86
2022-07-27T13:09:11.880Z,33.75
2022-07-27T13:10:21.002Z,33.65
2022-07-27T13:12:47.392Z,33.78
2022-07-27T13:13:54.860Z,33.21
2022-07-27T13:15:00.036Z,33.23
2022-07-27T13:16:05.388Z,33.32
2022-07-27T13:17:10.684Z,32.94
2022-07-27T13:18:23.404Z,32.94
2022-07-27T13:19:31.060Z,32.89
2022-07-27T13:20:34.951Z,32.72
2022-07-27T13:21:38.642Z,32.42
2022-07-27T13:23:54.267Z,32.96
2022-07-27T13:24:58.436Z,32.91
2022-07-27T13:26:05.870Z,32.85
2022-07-27T13:27:12.060Z,32.64
2022-07-27T13:28:15.042Z,32.48
2022-07-27T13:29:26.108Z,32.37
2022-07-27T13:30:31.017Z,32.31
2022-07-27T13:31:36.456Z,32.42
2022-07-27T13:32:41.853Z,32.20
2022-07-27T13:35:09.044Z,31.93
2022-07-27T13:36:16.293Z,31.80
2022-07-27T13:37:21.565Z,31.96
2022-07-27T13:38:31.952Z,31.97
2022-07-27T13:39:35.904Z,32.07
2022-07-27T13:40:40.613Z,31.85
2022-07-27T13:41:43.745Z,31.92
2022-07-27T13:42:47.814Z,31.87
2022-07-27T13:43:52.244Z,31.92
2022-07-27T13:45:07.914Z,31.78
2022-07-27T13:46:02.833Z,31.79
2022-07-27T13:47:08.511Z,31.75
2022-07-27T13:48:12.138Z,31.73
2022-07-27T13:49:19.076Z,31.67
2022-07-27T13:50:23.007Z,31.86
2022-07-27T13:51:29.275Z,31.63
2022-07-27T13:52:35.918Z,31.61
2022-07-27T13:53:40.257Z,31.74
2022-07-27T13:54:44.026Z,31.65
2022-07-27T13:55:48.050Z,31.72
2022-07-27T13:56:55.263Z,31.80
2022-07-27T13:58:01.483Z,31.65
2022-07-27T13:59:06.680Z,31.58
2022-07-27T14:00:16.874Z,31.50
2022-07-27T14:01:20.953Z,31.34
2022-07-27T14:02:25.742Z,31.34
2022-07-27T14:03:29.625Z,31.35
2022-07-27T14:04:37.187Z,31.44
2022-07-27T14:05:49.139Z,31.22
2022-07-27T14:06:48.417Z,30.89
2022-07-27T14:07:52.299Z,31.04
2022-07-27T14:08:54.927Z,31.16
2022-07-27T14:10:18.142Z,31.08
2022-07-27T14:11:21.928Z,31.15
2022-07-27T14:12:30.226Z,31.21
2022-07-27T14:13:34.158Z,31.05
2022-07-27T14:14:37.974Z,31.09
2022-07-27T14:15:52.543Z,31.03
2022-07-27T14:16:51.457Z,30.90
2022-07-27T14:17:56.887Z,30.75
2022-07-27T14:18:59.724Z,30.82
2022-07-27T14:20:05.411Z,30.72
2022-07-27T14:21:10.283Z,30.79
2022-07-27T14:22:14.310Z,30.79
2022-07-27T14:23:17.867Z,30.66
2022-07-27T14:24:22.477Z,30.70
2022-07-27T14:25:27.330Z,30.72
2022-07-27T14:26:32.086Z,30.70
2022-07-27T14:27:37.740Z,30.79
2022-07-27T14:28:41.213Z,30.43
2022-07-27T14:29:45.007Z,30.56
2022-07-27T14:30:49.593Z,30.60
2022-07-27T14:31:54.560Z,30.59
2022-07-27T14:32:59.329Z,30.63
2022-07-27T14:34:02.322Z,30.64
2022-07-27T14:35:10.404Z,30.70
2022-07-27T14:36:14.639Z,30.50
2022-07-27T14:37:18.113Z,30.46
2022-07-27T14:38:26.792Z,30.63
2022-07-27T14:39:30.394Z,30.65
2022-07-27T14:40:35.894Z,30.57
2022-07-27T14:41:42.558Z,30.62
2022-07-27T14:42:44.301Z,30.44
2022-07-27T14:43:48.800Z,30.58
2022-07-27T14:44:51.974Z,30.60
2022-07-27T14:45:59.366Z,30.61